Time;durP1;ratioP1;P1;durP2;ratioP2;P2;SDS_P1;SDS_P2;PMS_P1;PMS_P2;Temp;Humidity;BMP_temperature;BMP_pressure;BME280_temperature;BME280_humidity;BME280_pressure;Samples;Min_cycle;Max_cycle;Signal;HPM_P1;HPM_P2
2021/01/26 00:01:22;;;;;;;403.90;123.15;;;11.30;99.90;;;;;;5004791;28;20481;-79
2021/01/26 00:03:49;;;;;;;400.50;121.93;;;11.40;99.90;;;;;;5022223;28;20433;-79
2021/01/26 00:06:16;;;;;;;406.75;122.05;;;11.40;99.90;;;;;;4988942;28;20430;-79
2021/01/26 00:08:43;;;;;;;407.45;122.10;;;11.30;99.90;;;;;;4985219;28;20434;-79
2021/01/26 00:11:12;;;;;;;402.65;121.05;;;11.30;99.90;;;;;;4986877;28;20430;-79
2021/01/26 00:13:39;;;;;;;402.20;122.40;;;11.30;99.90;;;;;;5000649;28;20858;-79
2021/01/26 00:16:06;;;;;;;;;;;11.30;99.90;;;;;;5001501;28;21243;-79
2021/01/26 00:18:32;;;;;;;;;;;11.30;99.90;;;;;;5016128;28;20466;-79
2021/01/26 00:20:59;;;;;;;;;;;11.30;99.90;;;;;;4999145;28;20425;-79
2021/01/26 00:23:26;;;;;;;;;;;11.40;99.90;;;;;;5013385;28;20500;-78
2021/01/26 00:25:53;;;;;;;;;;;11.30;99.90;;;;;;4993317;28;25104;-79
2021/01/26 00:28:20;;;;;;;;;;;11.30;99.90;;;;;;5028519;28;25102;-80
2021/01/26 00:30:46;;;;;;;;;;;11.30;99.90;;;;;;4996480;28;25099;-80
2021/01/26 00:33:14;;;;;;;;;;;11.40;99.90;;;;;;5015095;28;20423;-79
2021/01/26 00:35:41;;;;;;;;;;;11.30;99.90;;;;;;5014686;28;20432;-79
2021/01/26 00:38:08;;;;;;;;;;;11.30;99.90;;;;;;4996436;28;20419;-79
2021/01/26 00:40:34;;;;;;;;;;;11.30;99.90;;;;;;5024986;28;20786;-79
2021/01/26 00:43:01;;;;;;;;;;;11.30;99.90;;;;;;5013592;28;20416;-79
2021/01/26 00:45:29;;;;;;;;;;;11.30;99.90;;;;;;5033817;28;25113;-79
2021/01/26 00:47:56;;;;;;;;;;;11.30;99.90;;;;;;4997937;28;22139;-79
2021/01/26 00:50:23;;;;;;;;;;;11.30;99.90;;;;;;5011126;28;25095;-79
2021/01/26 00:52:50;;;;;;;;;;;11.30;99.90;;;;;;5015841;28;20456;-79
2021/01/26 00:55:19;;;;;;;415.90;139.70;;;11.40;99.90;;;;;;4994625;28;25098;-79
2021/01/26 00:57:45;;;;;;;;;;;11.30;99.90;;;;;;5018185;28;20439;-78
2021/01/26 01:00:16;;;;;;;414.40;136.20;;;11.30;99.90;;;;;;5012257;28;20461;-79
2021/01/26 01:02:44;;;;;;;;;;;11.30;99.90;;;;;;4993243;28;20516;-78
2021/01/26 01:05:11;;;;;;;;;;;11.30;99.90;;;;;;4991573;28;20429;-79
2021/01/26 01:07:38;;;;;;;;;;;11.30;99.90;;;;;;5010947;28;25100;-78
2021/01/26 01:10:06;;;;;;;;;;;11.30;99.90;;;;;;5010761;28;20418;-79
2021/01/26 01:12:32;;;;;;;;;;;11.30;99.90;;;;;;5007712;28;20468;-78
2021/01/26 01:14:59;;;;;;;;;;;11.30;99.90;;;;;;5000550;28;20427;-78
2021/01/26 01:17:26;;;;;;;;;;;11.30;99.90;;;;;;4995255;28;20452;-78
2021/01/26 01:19:53;;;;;;;;;;;11.30;99.90;;;;;;4996406;28;20430;-78
2021/01/26 01:22:20;;;;;;;412.08;138.05;;;11.30;99.90;;;;;;4992409;28;25097;-79
2021/01/26 01:24:47;;;;;;;416.50;140.35;;;11.30;99.90;;;;;;4974946;28;20454;-78
2021/01/26 01:27:14;;;;;;;412.50;128.18;;;11.30;99.90;;;;;;4988971;28;20435;-79
2021/01/26 01:29:41;;;;;;;413.00;128.57;;;11.30;99.90;;;;;;5013025;28;20941;-79
2021/01/26 01:32:08;;;;;;;415.05;139.15;;;11.30;99.90;;;;;;4970408;28;20424;-79
2021/01/26 01:34:35;;;;;;;415.23;134.37;;;11.30;99.90;;;;;;4977609;28;20467;-79
2021/01/26 01:37:03;;;;;;;414.67;134.50;;;11.30;99.90;;;;;;4993792;28;20664;-79
2021/01/26 01:39:30;;;;;;;414.63;131.70;;;11.30;99.90;;;;;;4993893;28;20426;-79
2021/01/26 01:41:58;;;;;;;415.58;134.75;;;11.30;99.90;;;;;;4977677;28;20457;-79
2021/01/26 01:44:24;;;;;;;;;;;11.30;99.90;;;;;;4984918;28;20511;-79
2021/01/26 01:46:55;;;;;;;416.17;136.60;;;11.30;99.90;;;;;;5005932;28;20441;-79
2021/01/26 01:49:27;;;;;;;416.70;139.23;;;11.30;99.90;;;;;;4991134;28;20719;-79
2021/01/26 01:51:56;;;;;;;413.05;127.05;;;11.30;99.90;;;;;;5011559;28;20446;-79
2021/01/26 01:54:29;;;;;;;414.92;133.02;;;11.30;99.90;;;;;;4987705;28;20658;-79
2021/01/26 01:57:01;;;;;;;412.27;125.72;;;11.30;99.90;;;;;;5011623;28;20415;-79
2021/01/26 01:59:34;;;;;;;414.23;127.55;;;11.30;99.90;;;;;;5027039;28;20427;-79
2021/01/26 02:02:03;;;;;;;412.40;125.80;;;11.30;99.90;;;;;;5027692;28;20589;-79
2021/01/26 02:04:33;;;;;;;411.80;126.70;;;11.40;99.90;;;;;;5010387;28;20434;-79
2021/01/26 02:06:59;;;;;;;415.08;127.82;;;11.40;99.90;;;;;;5006100;28;20466;-80
2021/01/26 02:09:29;;;;;;;414.30;127.82;;;11.40;99.90;;;;;;5010093;28;20435;-79
2021/01/26 02:11:58;;;;;;;411.38;122.97;;;11.30;99.90;;;;;;5013574;28;20488;-79
2021/01/26 02:14:26;;;;;;;411.33;123.35;;;11.40;99.90;;;;;;4992311;28;20444;-79
2021/01/26 02:17:10;;;;;;;410.55;124.10;;;11.40;99.90;;;;;;5012625;28;20437;-79
2021/01/26 02:20:10;;;;;;;410.88;126.18;;;11.40;99.90;;;;;;5011296;28;20429;-79
2021/01/26 02:23:16;;;;;;;413.50;126.13;;;11.40;99.90;;;;;;5014153;28;20441;-79
2021/01/26 02:26:26;;;;;;;412.77;128.48;;;11.40;99.90;;;;;;5013450;28;20426;-79
2021/01/26 02:28:59;;;;;;;411.83;126.85;;;11.40;99.90;;;;;;5029440;28;20426;-80
2021/01/26 02:32:04;;;;;;;412.30;127.37;;;11.40;99.90;;;;;;4997970;28;20471;-79
2021/01/26 02:35:06;;;;;;;407.92;122.82;;;11.40;99.90;;;;;;5012486;28;20438;-79
2021/01/26 02:38:24;;;;;;;407.05;122.50;;;11.40;99.90;;;;;;5010871;28;20700;-79
2021/01/26 02:40:57;;;;;;;408.15;121.82;;;11.40;99.90;;;;;;5027706;28;20452;-79
2021/01/26 02:43:38;;;;;;;410.98;127.32;;;11.40;99.90;;;;;;5012437;28;20419;-79
2021/01/26 02:46:12;;;;;;;413.55;126.15;;;11.40;99.90;;;;;;5012554;28;20435;-79
2021/01/26 02:48:57;;;;;;;409.40;123.55;;;11.40;99.90;;;;;;5025553;28;20955;-79
2021/01/26 02:51:32;;;;;;;410.65;125.35;;;11.40;99.90;;;;;;5034341;28;20431;-79
2021/01/26 02:54:03;;;;;;;411.98;127.32;;;11.40;99.90;;;;;;5012494;28;20673;-79
2021/01/26 02:56:38;;;;;;;416.33;127.55;;;11.40;99.90;;;;;;5009715;28;20425;-79
2021/01/26 02:59:14;;;;;;;414.15;122.90;;;11.40;99.90;;;;;;5013971;28;20500;-79
2021/01/26 03:01:46;;;;;;;415.42;123.40;;;11.40;99.90;;;;;;5030985;28;20419;-79
2021/01/26 03:04:16;;;;;;;414.42;125.10;;;11.40;99.90;;;;;;5029635;28;20450;-79
2021/01/26 03:06:47;;;;;;;413.15;120.88;;;11.40;99.90;;;;;;5013935;28;20434;-79
2021/01/26 03:09:19;;;;;;;414.83;123.38;;;11.40;99.90;;;;;;5018252;28;20415;-79
2021/01/26 03:11:53;;;;;;;412.13;120.43;;;11.40;99.90;;;;;;5020677;28;20429;-79
2021/01/26 03:14:29;;;;;;;414.55;123.90;;;11.30;99.90;;;;;;5033535;28;20438;-79
2021/01/26 03:17:05;;;;;;;417.15;125.68;;;11.30;99.90;;;;;;5036659;28;20446;-79
2021/01/26 03:19:34;;;;;;;415.67;121.22;;;11.30;99.90;;;;;;5018643;28;20434;-79
2021/01/26 03:22:04;;;;;;;414.05;123.40;;;11.40;99.90;;;;;;4983320;28;20431;-79
2021/01/26 03:24:36;;;;;;;412.45;120.35;;;11.30;99.90;;;;;;4998409;28;20438;-79
2021/01/26 03:27:07;;;;;;;412.50;121.30;;;11.30;99.90;;;;;;5018630;28;20810;-78
2021/01/26 03:29:38;;;;;;;414.70;121.45;;;11.30;99.90;;;;;;5011679;28;20430;-78
2021/01/26 03:32:09;;;;;;;413.20;119.73;;;11.30;99.90;;;;;;5014696;28;20427;-78
2021/01/26 03:34:36;;;;;;;411.50;117.72;;;11.30;99.90;;;;;;5017581;28;20434;-79
2021/01/26 03:37:04;;;;;;;411.80;115.93;;;11.30;99.90;;;;;;5010194;28;20457;-79
2021/01/26 03:39:31;;;;;;;421.08;123.93;;;11.40;99.90;;;;;;5016769;28;20432;-79
2021/01/26 03:42:00;;;;;;;416.98;121.90;;;11.30;99.90;;;;;;4999615;28;20436;-79
2021/01/26 03:44:29;;;;;;;413.45;116.75;;;11.30;99.90;;;;;;4999887;28;20432;-79
2021/01/26 03:47:27;;;;;;;414.02;116.57;;;11.30;99.90;;;;;;4982790;28;20422;-79
2021/01/26 03:50:14;;;;;;;413.80;120.47;;;11.30;99.90;;;;;;5008252;28;20437;-79
2021/01/26 03:53:04;;;;;;;412.50;117.10;;;11.30;99.90;;;;;;5032155;28;20449;-79
2021/01/26 03:55:34;;;;;;;414.15;121.85;;;11.30;99.90;;;;;;5035111;28;20447;-79
2021/01/26 03:58:09;;;;;;;413.35;117.40;;;11.40;99.90;;;;;;5017791;28;21172;-79
2021/01/26 04:00:41;;;;;;;414.40;122.20;;;11.40;99.90;;;;;;5018990;28;20439;-78
2021/01/26 04:03:35;;;;;;;413.20;121.73;;;11.40;99.90;;;;;;5016079;28;20522;-78
2021/01/26 04:06:10;;;;;;;414.98;121.60;;;11.40;99.90;;;;;;5009515;28;20753;-80
2021/01/26 04:08:39;;;;;;;414.75;119.55;;;11.40;99.90;;;;;;5036377;28;20422;-79
2021/01/26 04:11:12;;;;;;;416.40;121.22;;;11.40;99.90;;;;;;5015681;28;20677;-79
2021/01/26 04:13:48;;;;;;;413.98;118.13;;;11.30;99.90;;;;;;5014423;28;20427;-79
2021/01/26 04:16:19;;;;;;;414.93;117.80;;;11.30;99.90;;;;;;5014258;28;20681;-79
2021/01/26 04:18:49;;;;;;;411.88;115.22;;;11.30;99.90;;;;;;5016706;28;20430;-79
2021/01/26 04:21:16;;;;;;;412.30;117.97;;;11.30;99.90;;;;;;5013926;28;20471;-79
2021/01/26 04:23:44;;;;;;;410.33;112.68;;;11.30;99.90;;;;;;5017652;28;20438;-79
2021/01/26 04:26:17;;;;;;;411.80;116.20;;;11.30;99.90;;;;;;4982880;28;20526;-79
2021/01/26 04:28:47;;;;;;;413.97;117.03;;;11.30;99.90;;;;;;5016488;28;20441;-79
2021/01/26 04:31:17;;;;;;;410.13;114.10;;;11.30;99.90;;;;;;4981915;28;20439;-79
2021/01/26 04:33:45;;;;;;;411.92;117.38;;;11.30;99.90;;;;;;4994404;28;20449;-79
2021/01/26 04:36:13;;;;;;;409.20;114.13;;;11.30;99.90;;;;;;5014906;28;20944;-79
2021/01/26 04:38:41;;;;;;;414.30;122.88;;;11.30;99.90;;;;;;4999735;28;20755;-79
2021/01/26 04:41:11;;;;;;;413.48;123.57;;;11.30;99.90;;;;;;4994508;28;20436;-79
2021/01/26 04:43:46;;;;;;;410.20;121.28;;;11.30;99.90;;;;;;4996641;28;20430;-79
2021/01/26 04:46:21;;;;;;;409.00;118.30;;;11.30;99.90;;;;;;5017260;28;20431;-79
2021/01/26 04:48:54;;;;;;;412.25;123.07;;;11.30;99.90;;;;;;5028949;28;20423;-79
2021/01/26 04:51:28;;;;;;;408.77;117.37;;;11.30;99.90;;;;;;5016200;28;20827;-79
2021/01/26 04:54:19;;;;;;;411.25;122.53;;;11.30;99.90;;;;;;5016643;28;20427;-79
2021/01/26 04:56:52;;;;;;;;;;;11.20;99.90;;;;;;5032601;28;20442;-79
2021/01/26 04:59:35;;;;;;;412.95;125.70;;;11.30;99.90;;;;;;5015673;28;20745;-80
2021/01/26 05:02:18;;;;;;;413.92;123.57;;;11.30;99.90;;;;;;5015693;28;20621;-80
2021/01/26 05:04:51;;;;;;;412.63;123.85;;;11.20;99.90;;;;;;5012110;28;20423;-80
2021/01/26 05:07:22;;;;;;;411.83;120.78;;;11.20;99.90;;;;;;5014423;28;20428;-79
2021/01/26 05:09:56;;;;;;;410.92;120.63;;;11.20;99.90;;;;;;5001428;28;20411;-79
2021/01/26 05:12:26;;;;;;;406.60;118.05;;;11.20;99.90;;;;;;5034675;28;20423;-80
2021/01/26 05:14:59;;;;;;;412.50;125.68;;;11.20;99.90;;;;;;5011490;28;20425;-79
2021/01/26 05:17:32;;;;;;;409.42;120.18;;;11.30;99.90;;;;;;5013160;28;20435;-79
2021/01/26 05:20:04;;;;;;;412.42;122.63;;;11.20;99.90;;;;;;5015747;28;20450;-79
2021/01/26 05:22:38;;;;;;;410.75;118.78;;;11.30;99.90;;;;;;5015626;28;20437;-79
2021/01/26 05:25:08;;;;;;;410.67;120.85;;;11.30;99.90;;;;;;5013060;28;20419;-79
2021/01/26 05:27:36;;;;;;;409.77;115.00;;;11.30;99.90;;;;;;5027490;28;20431;-79
2021/01/26 05:30:07;;;;;;;407.83;119.15;;;11.20;99.90;;;;;;4996299;28;20484;-79
2021/01/26 05:32:36;;;;;;;406.13;116.55;;;11.30;99.90;;;;;;5015986;28;20422;-79
2021/01/26 05:35:03;;;;;;;409.88;119.80;;;11.30;99.90;;;;;;4998761;28;20560;-80
2021/01/26 05:37:32;;;;;;;412.73;127.73;;;11.20;99.90;;;;;;4993283;28;20498;-79
2021/01/26 05:40:06;;;;;;;408.40;117.43;;;11.20;99.90;;;;;;5015591;28;20433;-79
2021/01/26 05:42:34;;;;;;;411.85;119.35;;;11.20;99.90;;;;;;5015481;28;20426;-79
2021/01/26 05:45:06;;;;;;;409.80;118.13;;;11.30;99.90;;;;;;4997685;28;20430;-78
2021/01/26 05:47:36;;;;;;;411.50;121.18;;;11.30;99.90;;;;;;5011621;28;20921;-79
2021/01/26 05:50:06;;;;;;;411.50;125.90;;;11.20;99.90;;;;;;4999764;28;20424;-79
2021/01/26 05:52:35;;;;;;;405.10;116.90;;;11.20;99.90;;;;;;4983089;28;25124;-79
2021/01/26 05:55:14;;;;;;;408.27;125.70;;;11.20;99.90;;;;;;5007754;28;20435;-79
2021/01/26 05:57:41;;;;;;;405.98;118.47;;;11.20;99.90;;;;;;5015706;28;20805;-79
2021/01/26 06:00:16;;;;;;;;;;;11.30;99.90;;;;;;4980363;28;20430;-79
2021/01/26 06:02:45;;;;;;;405.83;118.68;;;11.20;99.90;;;;;;5013695;28;21007;-79
2021/01/26 06:05:17;;;;;;;406.60;124.60;;;11.30;99.90;;;;;;4977604;28;20457;-79
2021/01/26 06:07:44;;;;;;;407.40;125.50;;;11.20;99.90;;;;;;5013625;28;20428;-79
2021/01/26 06:10:21;;;;;;;405.48;120.63;;;11.30;99.90;;;;;;5033962;28;20433;-80
2021/01/26 06:12:54;;;;;;;398.93;113.67;;;11.30;99.90;;;;;;5010691;28;20539;-80
2021/01/26 06:15:23;;;;;;;403.60;114.38;;;11.30;99.90;;;;;;5013302;28;20435;-80
2021/01/26 06:18:07;;;;;;;404.08;117.68;;;11.30;99.90;;;;;;5013405;28;20439;-80
2021/01/26 06:20:35;;;;;;;404.60;122.80;;;11.30;99.90;;;;;;4998940;28;20685;-80
2021/01/26 06:23:16;;;;;;;406.73;120.83;;;11.30;99.90;;;;;;4991002;28;20431;-80
2021/01/26 06:25:46;;;;;;;405.90;120.50;;;11.30;99.90;;;;;;5013938;28;20438;-80
2021/01/26 06:28:30;;;;;;;;;;;11.30;99.90;;;;;;5012385;28;20470;-81
2021/01/26 06:30:59;;;;;;;;;;;11.20;99.90;;;;;;5010299;28;20950;-80
2021/01/26 06:36:18;;;;;;;;;;;11.20;99.90;;;;;;5046466;28;20892;-62
2021/01/26 06:38:56;;;;;;;;;;;11.20;99.90;;;;;;5027006;28;21489;-62
2021/01/26 06:41:29;;;;;;;;;;;11.30;99.90;;;;;;5022300;28;20444;-62
2021/01/26 06:44:03;;;;;;;;;;;11.30;99.90;;;;;;5028821;28;20457;-62
2021/01/26 06:46:38;;;;;;;;;;;11.20;99.90;;;;;;5019087;28;25112;-62
2021/01/26 06:49:10;;;;;;;;;;;11.20;99.90;;;;;;5031514;28;20832;-62
2021/01/26 06:51:42;;;;;;;;;;;11.30;99.90;;;;;;5027254;28;25109;-62
2021/01/26 06:54:21;;;;;;;;;;;11.30;99.90;;;;;;5024735;28;20425;-62
2021/01/26 06:57:01;;;;;;;;;;;11.30;99.90;;;;;;5027597;28;25093;-61
2021/01/26 06:59:44;;;;;;;;;;;11.30;99.90;;;;;;5031078;28;21082;-62
2021/01/26 07:02:30;;;;;;;;;;;11.40;99.90;;;;;;5029187;28;25138;-61
2021/01/26 07:05:09;;;;;;;;;;;11.40;99.90;;;;;;5029238;28;25100;-62
2021/01/26 07:07:50;;;;;;;;;;;11.40;99.90;;;;;;5028203;28;26215;-62
2021/01/26 07:10:23;;;;;;;;;;;11.40;99.90;;;;;;5028156;28;20455;-62
2021/01/26 07:13:01;;;;;;;;;;;11.40;99.90;;;;;;5027524;28;25116;-62
2021/01/26 07:15:32;;;;;;;;;;;11.30;99.90;;;;;;5032492;28;20453;-62
2021/01/26 07:18:05;;;;;;;;;;;11.40;99.90;;;;;;5014338;28;25095;-61
2021/01/26 07:20:34;;;;;;;;;;;11.30;99.90;;;;;;5030666;28;20468;-62
2021/01/26 07:23:05;;;;;;;;;;;11.30;99.90;;;;;;5027218;28;20517;-62
2021/01/26 07:25:39;;;;;;;;;;;11.30;99.90;;;;;;5025921;28;20467;-62
2021/01/26 07:28:15;;;;;;;;;;;11.30;99.90;;;;;;5030062;28;20419;-61
2021/01/26 07:30:46;;;;;;;;;;;11.30;99.90;;;;;;5043227;28;20511;-61
2021/01/26 07:33:15;;;;;;;;;;;11.30;99.90;;;;;;5026989;28;20424;-61
2021/01/26 07:35:46;;;;;;;;;;;11.30;99.90;;;;;;5021463;28;20438;-61
2021/01/26 07:38:16;;;;;;;;;;;11.30;99.90;;;;;;5030582;28;20449;-61
2021/01/26 07:40:49;;;;;;;;;;;11.30;99.90;;;;;;5044123;28;25170;-62
2021/01/26 07:43:18;;;;;;;;;;;11.30;99.90;;;;;;5032133;28;20429;-62
2021/01/26 07:45:51;;;;;;;;;;;11.30;99.90;;;;;;5028645;28;25102;-61
2021/01/26 07:48:20;;;;;;;;;;;11.30;99.90;;;;;;5025582;28;20490;-62
2021/01/26 07:50:49;;;;;;;;;;;11.20;99.90;;;;;;5034635;28;25184;-62
2021/01/26 07:53:22;;;;;;;404.60;128.40;;;11.30;99.90;;;;;;5031923;28;20457;-62
2021/01/26 07:55:57;;;;;;;403.90;127.20;;;11.20;99.90;;;;;;5036796;28;20506;-62
2021/01/26 07:58:25;;;;;;;401.80;123.97;;;11.30;99.90;;;;;;5037073;28;20431;-61
2021/01/26 08:00:58;;;;;;;404.15;128.65;;;11.20;99.90;;;;;;5017109;28;20432;-61
2021/01/26 08:03:28;;;;;;;399.30;127.65;;;11.20;99.90;;;;;;5016952;28;20500;-62
2021/01/26 08:05:55;;;;;;;;;;;11.20;99.90;;;;;;5032720;28;20593;-62
2021/01/26 08:08:24;;;;;;;;;;;11.20;99.90;;;;;;5034749;28;20435;-62
2021/01/26 08:11:06;;;;;;;395.60;121.60;;;11.30;99.90;;;;;;5035834;28;20515;-62
2021/01/26 08:13:35;;;;;;;402.42;119.35;;;11.20;99.90;;;;;;5034304;28;20986;-61
2021/01/26 08:16:19;;;;;;;400.63;123.07;;;11.20;99.90;;;;;;5020296;28;20531;-61
2021/01/26 08:18:47;;;;;;;403.30;124.43;;;11.20;99.90;;;;;;5036432;28;21010;-62
2021/01/26 08:21:36;;;;;;;401.23;120.70;;;11.20;99.90;;;;;;5014747;28;20559;-62
2021/01/26 08:24:16;;;;;;;399.63;124.78;;;11.20;99.90;;;;;;5052041;28;20481;-62
2021/01/26 08:26:44;;;;;;;402.70;124.80;;;11.20;99.90;;;;;;5044004;28;20444;-62
2021/01/26 08:29:12;;;;;;;401.13;129.33;;;11.20;99.90;;;;;;5014786;28;20423;-62
2021/01/26 08:31:40;;;;;;;397.93;122.50;;;11.20;99.90;;;;;;5000576;28;20830;-62
2021/01/26 08:34:36;;;;;;;;;;;11.30;99.90;;;;;;5004501;28;20461;-61
2021/01/26 08:37:25;;;;;;;397.65;122.78;;;11.20;99.90;;;;;;5051838;28;20437;-61
2021/01/26 08:39:53;;;;;;;;;;;11.20;99.90;;;;;;5033961;28;21109;-61
2021/01/26 08:42:37;;;;;;;;;;;11.20;99.90;;;;;;5035944;28;20915;-61
2021/01/26 08:45:06;;;;;;;;;;;11.20;99.90;;;;;;5020952;28;20429;-62
2021/01/26 08:47:43;;;;;;;;;;;11.20;99.90;;;;;;5027610;28;20453;-62
2021/01/26 08:50:12;;;;;;;;;;;11.20;99.90;;;;;;5043556;28;25116;-61
2021/01/26 08:52:38;;;;;;;;;;;11.30;99.90;;;;;;5029562;28;20492;-62
2021/01/26 08:55:07;;;;;;;398.02;127.95;;;11.20;99.90;;;;;;5012840;28;20442;-61
2021/01/26 08:57:43;;;;;;;;;;;11.20;99.90;;;;;;5009831;28;20435;-62
2021/01/26 09:00:25;;;;;;;;;;;11.20;99.90;;;;;;5027089;28;20425;-62
2021/01/26 09:02:53;;;;;;;;;;;11.20;99.90;;;;;;5030498;28;20445;-62
2021/01/26 09:05:49;;;;;;;;;;;11.20;99.90;;;;;;5013462;28;25113;-62
2021/01/26 09:08:44;;;;;;;;;;;11.20;99.90;;;;;;5044622;28;20908;-61
2021/01/26 09:11:16;;;;;;;396.30;121.20;;;11.20;99.90;;;;;;5033237;28;20423;-61
2021/01/26 09:13:45;;;;;;;396.30;115.57;;;11.20;99.90;;;;;;5029783;28;25157;-62
2021/01/26 09:16:18;;;;;;;402.70;124.13;;;11.20;99.90;;;;;;5011078;28;20770;-61
2021/01/26 09:18:52;;;;;;;400.37;121.20;;;11.20;99.90;;;;;;5035656;28;20431;-62
2021/01/26 09:21:19;;;;;;;399.88;121.50;;;11.20;99.90;;;;;;5049127;28;20804;-62
2021/01/26 09:23:47;;;;;;;398.83;120.15;;;11.20;99.90;;;;;;5011897;28;20427;-62
2021/01/26 09:26:16;;;;;;;400.08;118.97;;;11.20;99.90;;;;;;5016025;28;20469;-61
2021/01/26 09:28:46;;;;;;;408.60;128.48;;;11.20;99.90;;;;;;5029119;28;20485;-62
2021/01/26 09:31:16;;;;;;;402.25;119.60;;;11.20;99.90;;;;;;5027239;28;20428;-61
2021/01/26 09:33:43;;;;;;;402.80;120.45;;;11.20;99.90;;;;;;5010835;28;20436;-62
2021/01/26 09:36:11;;;;;;;404.30;121.28;;;11.20;99.90;;;;;;5029477;28;20423;-62
2021/01/26 09:38:41;;;;;;;402.88;122.18;;;11.20;99.90;;;;;;5043531;28;20432;-62
2021/01/26 09:41:17;;;;;;;397.33;116.22;;;11.20;99.90;;;;;;5030917;28;20439;-61
2021/01/26 09:43:45;;;;;;;399.33;119.90;;;11.20;99.90;;;;;;5029176;28;20511;-62
2021/01/26 09:46:16;;;;;;;401.85;123.75;;;11.20;99.90;;;;;;5028084;28;20431;-62
2021/01/26 09:48:45;;;;;;;400.83;121.63;;;11.30;99.90;;;;;;5015450;28;20833;-61
2021/01/26 09:51:17;;;;;;;403.25;123.05;;;11.20;99.90;;;;;;5013629;28;22957;-61
2021/01/26 09:53:46;;;;;;;403.42;121.07;;;11.30;99.90;;;;;;5049267;28;20424;-61
2021/01/26 09:56:17;;;;;;;400.27;121.35;;;11.30;99.90;;;;;;5030302;28;20432;-61
2021/01/26 09:58:45;;;;;;;398.63;118.78;;;11.40;99.90;;;;;;5017076;28;21242;-61
2021/01/26 10:01:15;;;;;;;396.33;118.13;;;11.30;99.90;;;;;;5012715;28;20431;-61
2021/01/26 10:03:43;;;;;;;396.73;118.83;;;11.30;99.90;;;;;;5020632;28;20792;-61
2021/01/26 10:06:11;;;;;;;397.38;122.38;;;11.30;99.90;;;;;;5000445;28;21217;-61
2021/01/26 10:08:39;;;;;;;373.63;108.30;;;11.30;99.90;;;;;;5019250;28;20435;-61
2021/01/26 10:11:11;;;;;;;389.42;112.75;;;11.30;99.90;;;;;;5019235;28;21000;-61
2021/01/26 10:13:41;;;;;;;390.55;112.30;;;11.30;99.90;;;;;;5029316;28;20425;-62
2021/01/26 10:16:34;;;;;;;391.40;111.13;;;11.30;99.90;;;;;;5001477;28;20432;-61
2021/01/26 10:19:09;;;;;;;384.30;107.05;;;11.30;99.90;;;;;;5034867;28;20432;-61
2021/01/26 10:21:36;;;;;;;387.42;112.03;;;11.30;99.90;;;;;;5034281;28;20423;-61
2021/01/26 10:24:06;;;;;;;382.73;106.75;;;11.30;99.90;;;;;;5011620;28;20427;-61
2021/01/26 10:26:39;;;;;;;384.27;103.07;;;11.30;99.90;;;;;;5015969;28;20431;-61
2021/01/26 10:29:34;;;;;;;376.50;116.78;;;11.30;99.90;;;;;;5042744;28;20427;-61
2021/01/26 10:32:03;;;;;;;368.38;105.20;;;11.40;99.90;;;;;;5033987;28;20427;-61
2021/01/26 10:34:42;;;;;;;372.15;102.43;;;11.30;99.90;;;;;;5044489;28;20419;-61
2021/01/26 10:37:30;;;;;;;379.90;103.47;;;11.40;99.90;;;;;;5029463;28;20423;-61
2021/01/26 10:40:20;;;;;;;384.75;109.97;;;11.30;99.90;;;;;;5032071;28;20431;-61
2021/01/26 10:42:59;;;;;;;384.52;109.53;;;11.40;99.90;;;;;;5033087;28;20432;-61
2021/01/26 10:45:40;;;;;;;379.23;98.03;;;11.40;99.90;;;;;;5031751;28;21008;-62
2021/01/26 10:48:12;;;;;;;374.75;94.13;;;11.40;99.90;;;;;;5033286;28;20600;-61
2021/01/26 10:50:39;;;;;;;379.80;99.28;;;11.40;99.90;;;;;;5033945;28;20776;-62
2021/01/26 10:53:07;;;;;;;376.95;95.05;;;11.40;99.90;;;;;;5015540;28;20419;-61
2021/01/26 10:55:34;;;;;;;378.98;99.07;;;11.40;99.90;;;;;;4998833;28;20470;-61
2021/01/26 10:58:01;;;;;;;378.23;101.28;;;11.40;99.90;;;;;;5005197;28;20459;-61
2021/01/26 11:00:28;;;;;;;379.95;100.57;;;11.50;99.90;;;;;;5023348;28;20797;-60
2021/01/26 11:02:56;;;;;;;381.27;101.60;;;11.40;99.90;;;;;;5016113;28;20424;-61
2021/01/26 11:05:24;;;;;;;388.02;105.25;;;11.40;99.90;;;;;;5049790;28;20450;-61
2021/01/26 11:07:52;;;;;;;383.17;101.13;;;11.50;99.90;;;;;;5015229;28;20866;-61
2021/01/26 11:10:19;;;;;;;389.42;103.53;;;11.40;99.90;;;;;;5005160;28;21159;-61
2021/01/26 11:12:46;;;;;;;386.08;103.20;;;11.40;99.90;;;;;;5014418;28;20764;-61
2021/01/26 11:15:17;;;;;;;381.92;101.68;;;11.40;99.90;;;;;;5016228;28;20435;-61
2021/01/26 11:17:45;;;;;;;387.50;104.70;;;11.40;99.90;;;;;;5034732;28;20423;-61
2021/01/26 11:20:13;;;;;;;389.77;110.10;;;11.40;99.90;;;;;;5029580;28;20423;-61
2021/01/26 11:22:41;;;;;;;385.77;112.72;;;11.40;99.90;;;;;;5031457;28;20483;-61
2021/01/26 11:25:09;;;;;;;385.95;109.72;;;11.40;99.90;;;;;;5016491;28;20433;-61
2021/01/26 11:27:36;;;;;;;385.15;107.00;;;11.30;99.90;;;;;;5036558;28;20460;-61
2021/01/26 11:30:04;;;;;;;386.92;110.63;;;11.30;99.90;;;;;;5015799;28;20952;-61
2021/01/26 11:32:31;;;;;;;389.65;113.50;;;11.30;99.90;;;;;;5019260;28;21113;-62
2021/01/26 11:34:58;;;;;;;392.38;111.15;;;11.30;99.90;;;;;;5017437;28;20436;-61
2021/01/26 11:37:26;;;;;;;393.63;113.60;;;11.30;99.90;;;;;;5015343;28;20462;-61
2021/01/26 11:39:54;;;;;;;389.80;116.67;;;11.30;99.90;;;;;;5013712;28;20566;-61
2021/01/26 11:42:21;;;;;;;431.60;140.43;;;11.30;99.90;;;;;;5003652;28;21167;-61
2021/01/26 11:44:48;;;;;;;429.77;141.20;;;11.30;99.90;;;;;;5006716;28;20527;-61
2021/01/26 11:47:15;;;;;;;424.48;135.32;;;11.40;99.90;;;;;;5003017;28;20433;-61
2021/01/26 11:49:43;;;;;;;427.75;137.73;;;11.30;99.90;;;;;;5013415;28;20430;-61
2021/01/26 11:52:10;;;;;;;422.17;127.68;;;11.30;99.90;;;;;;5017553;28;20535;-61
2021/01/26 11:54:37;;;;;;;420.70;130.70;;;11.30;99.90;;;;;;5014360;28;20834;-61
2021/01/26 11:57:05;;;;;;;416.40;121.83;;;11.30;99.90;;;;;;5014507;28;20414;-61
2021/01/26 11:59:32;;;;;;;417.92;126.70;;;11.30;99.90;;;;;;5023099;28;20422;-61
2021/01/26 12:02:00;;;;;;;416.02;123.00;;;11.30;99.90;;;;;;5009476;28;20428;-61
2021/01/26 12:04:27;;;;;;;411.50;114.82;;;11.30;99.90;;;;;;4999891;28;20422;-61
2021/01/26 12:06:54;;;;;;;413.35;111.95;;;11.30;99.90;;;;;;5005648;28;20436;-61
2021/01/26 12:09:21;;;;;;;417.85;125.75;;;11.30;99.90;;;;;;5016671;28;20433;-61
2021/01/26 12:11:48;;;;;;;417.50;122.37;;;11.30;99.90;;;;;;5003976;28;20435;-61
2021/01/26 12:14:16;;;;;;;409.38;116.30;;;11.30;99.90;;;;;;4998029;28;20435;-61
2021/01/26 12:16:44;;;;;;;411.92;115.38;;;11.30;99.90;;;;;;5003470;28;20428;-61
2021/01/26 12:19:11;;;;;;;410.40;119.30;;;11.30;99.90;;;;;;5001056;28;20491;-61
2021/01/26 12:21:38;;;;;;;408.30;115.90;;;11.30;99.90;;;;;;4999307;28;20426;-61
2021/01/26 12:24:08;;;;;;;409.52;115.40;;;11.30;99.90;;;;;;5008770;28;20418;-61
2021/01/26 12:26:35;;;;;;;412.05;116.50;;;11.30;99.90;;;;;;5017095;28;20435;-61
2021/01/26 12:29:02;;;;;;;412.90;125.68;;;11.30;99.90;;;;;;5013910;28;21249;-62
2021/01/26 12:31:30;;;;;;;412.00;118.38;;;11.30;99.90;;;;;;5014540;28;20453;-61
2021/01/26 12:33:57;;;;;;;410.88;119.78;;;11.30;99.90;;;;;;5017620;28;20427;-61
2021/01/26 12:36:24;;;;;;;409.88;120.85;;;11.30;99.90;;;;;;5019589;28;20417;-61
2021/01/26 12:38:51;;;;;;;410.83;119.20;;;11.30;99.90;;;;;;5018453;28;20504;-61
2021/01/26 12:41:18;;;;;;;415.45;126.25;;;11.30;99.90;;;;;;5000783;28;20440;-61
2021/01/26 12:43:46;;;;;;;415.20;126.72;;;11.30;99.90;;;;;;5025882;28;20941;-62
2021/01/26 12:46:13;;;;;;;415.02;122.15;;;11.30;99.90;;;;;;5001289;28;20427;-62
2021/01/26 12:48:41;;;;;;;417.75;130.77;;;11.30;99.90;;;;;;4998226;28;20439;-61
2021/01/26 12:51:08;;;;;;;415.83;122.30;;;11.30;99.90;;;;;;5012251;28;20420;-61
2021/01/26 12:53:35;;;;;;;414.02;130.63;;;11.30;99.90;;;;;;4995854;28;20437;-62
2021/01/26 12:56:02;;;;;;;407.93;122.20;;;11.30;99.90;;;;;;4997228;28;20523;-61
2021/01/26 12:58:30;;;;;;;398.20;113.35;;;11.30;99.90;;;;;;5014943;28;20417;-61
2021/01/26 13:00:57;;;;;;;406.73;119.68;;;11.30;99.90;;;;;;5001159;28;20966;-61
2021/01/26 13:03:24;;;;;;;2.08;1.05;;;11.30;99.90;;;;;;4996625;28;20431;-61